Naha City, Japan

11:56 PM JST on August 27, 2014 (GMT +0900)
Futenma Marine Corps Air Station | Change Station
CLOSE
Current Station
Airport
Location: Futenma MCAF,
Elevation: 246 ft
Nearby Weather Stations

Elev 246 ft 26.27 °N, 127.75 °E | Updated -100 second ago

Scattered Clouds
Scattered Clouds
83 °F
Feels Like 90 °F
N
5
Wind Variable Wind from East

Today
High -- | Low -- °F
--% Chance of Precip.
Yesterday
High -- | Low -- °F
Precip. -- in
6:07 AM 6:54 PM
Waxing Crescent, 4% visible
Pressure 29.95 in
Visibility 6.2 miles
Clouds Few 3000 ft
Scattered Clouds 7000 ft
Heat Index 90 °F
Dew Point 75 °F
Humidity 78%
Rainfall 0.00 in
Snow Depth Not available.
UV 0 out of 12
Pollen Not available.
Air Quality Not available.
Flu Activity Not available.
METAR ROTM 271458Z 10004KT 9999 FEW030 SCT070 28/24 A2999 RMK SLP140 60000 T02830241 403300272 54000

More Conditions Fewer Conditions

Pressure 29.95 in
Visibility 6.2 miles
Clouds Few 3000 ft
Scattered Clouds 7000 ft
Heat Index 90 °F
Dew Point 75 °F
Humidity 78%
Rainfall 0.00 in
Snow Depth Not available.
UV 0 out of 12
Pollen Not available.
Air Quality Not available.
Flu Activity Not available.
METAR ROTM 271458Z 10004KT 9999 FEW030 SCT070 28/24 A2999 RMK SLP140 60000 T02830241 403300272 54000

More Conditions Fewer Conditions

10-Day Weather Forecast

Almanac

Astronomy

Aug. 27, 2014 Rise Set
Actual Time 6:07 AM JST 6:54 PM JST
Civil Twilight 5:43 AM JST 7:18 PM JST
Nautical Twilight 5:15 AM JST 7:46 PM JST
Astronomical Twilight 4:47 AM JST 8:14 PM JST
Moon 7:17 AM JST 7:42 PM JST
Length of Visible Light 13h 34m
Length of Day
12h 47m
Tomorrow will be 1m 27s shorter.
Waxing Crescent, 4% of the Moon is Illuminated
Today
Waxing Crescent
Sep 2
First Quarter
Sep 8
Full
Sep 15
Last Quarter
Sep 24
New

Today's Extremes

Country Highs Country Lows

Community

WunderPhotos

Upload Photos

1,747,701 photos uploaded!

Nearby

Snow Depth

Not available.

Earthquake Activity

City Distance Mag. Time & Date
No recent earthquake activity has been reported nearby.
Minimum magnitude displayed is 2.5.

Coastal Water Temperatures

Place Temperature
No Stations Reporting

Nearby Weather Stations